Caribbean Princess — ZCDG8 — position and weather

sailwx.info

Track history (hours):
 
Tides and Currents Weather Stations Pressure Air Temp Water Temp Dewpoint Dewpoint Depression Visibility Wind Speed Wind Dir Waves Ship Positions

Caribbean Princess

Operator: Princess Cruises

Last reported at 2015-May-04 00:00 UTC. Time now 2015-May-04 18:05 UTC.
Position N 41°48' W 018°42'.

Type: Passenger vessel. MMSI: 310423000.

Wind from 360 at 17 knots

Waves 1.0 meters (3 feet), 4 second period

Barometer 1004.8 mb
Air temperature 13.5 ° C
Visibility: greater than 10.8 NM
Dewpoint 8.5 ° C
Water temperature 15.0 ° C

Date/timePositionNaut miles runAvg speedWind from/ knotsBaromVisibWave heightAir tempDewpointWater temp
2015-May-04 00:00N 41°48' W 018°42'33512.2 360 / 171004.810.8 1.013.5 8.515.0
2015-May-02 20:33N 38°20' W 024°25'2019.6
2015-May-02 19:33N 38°05' W 024°41'2019.5
2015-May-02 18:33N 37°50' W 024°57'1818.0
2015-May-02 17:33N 37°41' W 025°16'1616.4
2015-May-02 16:33N 37°43' W 025°37'3 2.6
2015-May-02 15:32N 37°44' W 025°40'0 0.0
2015-May-02 14:32N 37°44' W 025°40'0 0.0
2015-May-02 13:32N 37°44' W 025°40'0 0.0
2015-May-02 12:32N 37°44' W 025°40'0 0.0
2015-May-02 11:32N 37°44' W 025°40'0 0.0
2015-May-02 10:32N 37°44' W 025°40'0 0.0
2015-May-02 09:32N 37°44' W 025°40'0 0.0
2015-May-02 08:32N 37°44' W 025°40'1 0.5
2015-May-02 07:33N 37°44' W 025°39'1010.0
2015-May-02 06:33N 37°41' W 025°51'1717.5
2015-May-02 05:33N 37°38' W 026°13'1717.2
2015-May-02 04:33N 37°35' W 026°34'1717.0
2015-May-02 03:33N 37°32' W 026°55'1717.2
2015-May-02 02:33N 37°29' W 027°17'1818.4
2015-May-02 01:33N 37°26' W 027°39'1918.9
2015-May-02 00:33N 37°22' W 028°03'1918.9
2015-May-01 23:33N 37°19' W 028°26'1818.3
2015-May-01 22:33N 37°16' W 028°49'1918.6
2015-May-01 21:33N 37°12' W 029°12'1918.7
2015-May-01 20:33N 37°09' W 029°35'51217.9
2015-Apr-30 16:00N 35°36' W 040°00'6913.9 230 / 241008.6 5.4 2.020.517.420.0
2015-Apr-30 11:00N 35°24' W 041°24'   240 / 251007.8 5.4 2.020.016.721.0
2015-Apr-26 05:00N 27°54' W 078°18'10218.6 200 / 231009.610.8 1.025.023.529.0
2015-Apr-25 23:32N 26°42' W 079°39'2223.0
2015-Apr-25 22:33N 26°21' W 079°47'2020.3
2015-Apr-25 21:33N 26°07' W 080°03'4 3.6
2015-Apr-25 20:29N 26°05' W 080°07'0 0.0
2015-Apr-25 19:25N 26°05' W 080°07'0 0.0
2015-Apr-25 18:29N 26°05' W 080°07'0 0.0
2015-Apr-25 17:30N 26°05' W 080°07'0 0.0
2015-Apr-25 16:28N 26°05' W 080°07'0 0.0
2015-Apr-25 15:33N 26°05' W 080°07'0 0.0
2015-Apr-25 14:32N 26°05' W 080°07'0 0.0
2015-Apr-25 13:32N 26°05' W 080°07'0 0.0
2015-Apr-25 12:32N 26°05' W 080°07'0 0.0
2015-Apr-25 11:23N 26°05' W 080°07'0 0.0
2015-Apr-25 10:33N 26°05' W 080°07'6 6.4
2015-Apr-25 09:33N 26°06' W 079°60'1817.9
2015-Apr-25 08:33N 26°08' W 079°40'18121.1
2015-Apr-25 00:00N 25°30' W 076°24'157 6.9 020 / 201013.910.8 0.526.522.128.0
2015-Apr-24 01:05N 26°14' W 079°12'1120.7
2015-Apr-24 00:32N 26°11' W 079°24'  
Track history (hours):
 
Tides and Currents Weather Stations Pressure Air Temp Water Temp Dewpoint Dewpoint Depression Visibility Wind Speed Wind Dir Waves Ship Positions

Caribbean Princess

Operator: Princess Cruises

Last reported at 2015-May-04 00:00 UTC. Time now 2015-May-04 18:05 UTC.
Position N 41°48' W 018°42'.

Type: Passenger vessel. MMSI: 310423000.

Wind from 360 at 17 knots

Waves 1.0 meters (3 feet), 4 second period

Barometer 1004.8 mb
Air temperature 13.5 ° C
Visibility: greater than 10.8 NM
Dewpoint 8.5 ° C
Water temperature 15.0 ° C

Date/timePositionNaut miles runAvg speedWind from/ knotsBaromVisibWave heightAir tempDewpointWater temp
2015-May-04 00:00N 41°48' W 018°42'33512.2 360 / 171004.810.8 1.013.5 8.515.0
2015-May-02 20:33N 38°20' W 024°25'2019.6
2015-May-02 19:33N 38°05' W 024°41'2019.5
2015-May-02 18:33N 37°50' W 024°57'1818.0
2015-May-02 17:33N 37°41' W 025°16'1616.4
2015-May-02 16:33N 37°43' W 025°37'3 2.6
2015-May-02 15:32N 37°44' W 025°40'0 0.0
2015-May-02 14:32N 37°44' W 025°40'0 0.0
2015-May-02 13:32N 37°44' W 025°40'0 0.0
2015-May-02 12:32N 37°44' W 025°40'0 0.0
2015-May-02 11:32N 37°44' W 025°40'0 0.0
2015-May-02 10:32N 37°44' W 025°40'0 0.0
2015-May-02 09:32N 37°44' W 025°40'0 0.0
2015-May-02 08:32N 37°44' W 025°40'1 0.5
2015-May-02 07:33N 37°44' W 025°39'1010.0
2015-May-02 06:33N 37°41' W 025°51'1717.5
2015-May-02 05:33N 37°38' W 026°13'1717.2
2015-May-02 04:33N 37°35' W 026°34'1717.0
2015-May-02 03:33N 37°32' W 026°55'1717.2
2015-May-02 02:33N 37°29' W 027°17'1818.4
2015-May-02 01:33N 37°26' W 027°39'1918.9
2015-May-02 00:33N 37°22' W 028°03'1918.9
2015-May-01 23:33N 37°19' W 028°26'1818.3
2015-May-01 22:33N 37°16' W 028°49'1918.6
2015-May-01 21:33N 37°12' W 029°12'1918.7
2015-May-01 20:33N 37°09' W 029°35'51217.9
2015-Apr-30 16:00N 35°36' W 040°00'6913.9 230 / 241008.6 5.4 2.020.517.420.0
2015-Apr-30 11:00N 35°24' W 041°24'   240 / 251007.8 5.4 2.020.016.721.0
2015-Apr-26 05:00N 27°54' W 078°18'10218.6 200 / 231009.610.8 1.025.023.529.0
2015-Apr-25 23:32N 26°42' W 079°39'2223.0
2015-Apr-25 22:33N 26°21' W 079°47'2020.3
2015-Apr-25 21:33N 26°07' W 080°03'4 3.6
2015-Apr-25 20:29N 26°05' W 080°07'0 0.0
2015-Apr-25 19:25N 26°05' W 080°07'0 0.0
2015-Apr-25 18:29N 26°05' W 080°07'0 0.0
2015-Apr-25 17:30N 26°05' W 080°07'0 0.0
2015-Apr-25 16:28N 26°05' W 080°07'0 0.0
2015-Apr-25 15:33N 26°05' W 080°07'0 0.0
2015-Apr-25 14:32N 26°05' W 080°07'0 0.0
2015-Apr-25 13:32N 26°05' W 080°07'0 0.0
2015-Apr-25 12:32N 26°05' W 080°07'0 0.0
2015-Apr-25 11:23N 26°05' W 080°07'0 0.0
2015-Apr-25 10:33N 26°05' W 080°07'6 6.4
2015-Apr-25 09:33N 26°06' W 079°60'1817.9
2015-Apr-25 08:33N 26°08' W 079°40'18121.1
2015-Apr-25 00:00N 25°30' W 076°24'157 6.9 020 / 201013.910.8 0.526.522.128.0
2015-Apr-24 01:05N 26°14' W 079°12'1120.7
2015-Apr-24 00:32N 26°11' W 079°24'  

Dump ship's entire track history